Time;durP1;ratioP1;P1;durP2;ratioP2;P2;SDS_P1;SDS_P2;PMS_P1;PMS_P2;Temp;Humidity;BMP_temperature;BMP_pressure;BME280_temperature;BME280_humidity;BME280_pressure;Samples;Min_cycle;Max_cycle;Signal;HPM_P1;HPM_P2
2021/07/30 00:00:16;;;;;;;10.57;4.28;;;;;;;18.80;71.11;99445.63;4942700;29;20024;-96
2021/07/30 00:02:41;;;;;;;16.48;5.05;;;;;;;18.82;71.27;99428.47;4950708;29;20079;-96
2021/07/30 00:05:07;;;;;;;13.05;6.05;;;;;;;18.75;72.07;99426.69;4972188;29;20056;-96
2021/07/30 00:07:37;;;;;;;15.30;4.80;;;;;;;18.66;71.58;99406.50;5081738;23;20090;-96
2021/07/30 00:10:04;;;;;;;14.95;4.07;;;;;;;18.89;70.51;99411.78;5293980;23;20044;-95
2021/07/30 00:12:29;;;;;;;8.77;4.88;;;;;;;19.01;70.34;99413.78;4961173;28;20039;-95
2021/07/30 00:14:54;;;;;;;11.13;4.53;;;;;;;18.74;71.69;99401.09;4958745;28;20027;-95
2021/07/30 00:17:20;;;;;;;14.80;4.75;;;;;;;18.65;71.59;99404.84;4959001;28;20526;-94
2021/07/30 00:19:45;;;;;;;13.57;4.70;;;;;;;18.67;71.98;99394.88;5024590;23;20139;-95
2021/07/30 00:22:10;;;;;;;10.70;4.18;;;;;;;18.70;72.13;99386.50;4938370;29;20400;-94
2021/07/30 00:24:36;;;;;;;11.02;4.68;;;;;;;18.45;73.28;99389.41;4939997;29;20027;-94
2021/07/30 00:27:01;;;;;;;11.73;4.60;;;;;;;18.49;73.62;99387.22;4937768;29;20031;-96
2021/07/30 00:29:26;;;;;;;19.15;5.97;;;;;;;18.47;73.68;99376.78;4937498;29;20034;-95
2021/07/30 00:31:52;;;;;;;10.90;4.60;;;;;;;18.76;73.07;99380.47;4937378;29;20053;-93
2021/07/30 00:34:17;;;;;;;16.00;6.63;;;;;;;18.46;74.13;99371.63;4936553;29;20106;-95
2021/07/30 00:36:42;;;;;;;15.52;4.95;;;;;;;18.68;73.13;99369.91;4936703;29;20035;-96
2021/07/30 00:39:08;;;;;;;14.73;5.53;;;;;;;18.39;74.54;99363.56;4937034;29;20035;-93
2021/07/30 00:41:39;;;;;;;12.38;5.68;;;;;;;18.43;73.99;99357.69;4936541;29;20226;-94
2021/07/30 00:44:07;;;;;;;13.00;5.70;;;;;;;18.34;74.25;99355.28;4936315;29;20032;-95
2021/07/30 00:46:34;;;;;;;10.38;5.45;;;;;;;18.57;73.55;99342.78;4936439;29;20115;-95
2021/07/30 00:49:00;;;;;;;16.67;5.88;;;;;;;18.08;75.62;99337.91;4937258;29;20027;-94
2021/07/30 00:51:25;;;;;;;16.73;6.22;;;;;;;17.94;76.35;99325.41;4936392;29;20031;-94
2021/07/30 00:53:51;;;;;;;20.45;6.57;;;;;;;17.84;77.14;99323.81;4936234;29;20035;-95
2021/07/30 00:56:17;;;;;;;16.83;5.55;;;;;;;18.32;75.65;99320.09;4936995;29;20423;-95
2021/07/30 00:58:43;;;;;;;19.48;6.97;;;;;;;18.30;75.00;99314.16;4936341;29;20038;-94
2021/07/30 01:01:08;;;;;;;16.08;6.03;;;;;;;18.06;76.79;99305.41;4936763;29;20360;-95
2021/07/30 01:03:34;;;;;;;11.95;6.40;;;;;;;18.27;75.99;99296.75;4935882;29;20040;-94
2021/07/30 01:06:00;;;;;;;11.57;6.93;;;;;;;18.18;76.91;99293.31;4938344;29;20050;-94
2021/07/30 01:08:26;;;;;;;15.45;6.40;;;;;;;18.35;75.92;99306.47;4936734;29;20031;-93
2021/07/30 01:10:52;;;;;;;13.90;6.00;;;;;;;18.40;75.38;99288.13;4936075;29;20034;-95
2021/07/30 01:13:18;;;;;;;13.88;6.97;;;;;;;18.14;76.68;99277.94;4936411;29;20024;-95
2021/07/30 01:15:43;;;;;;;12.15;6.45;;;;;;;18.58;74.61;99277.97;4934819;29;20051;-94
2021/07/30 01:18:08;;;;;;;10.80;5.93;;;;;;;18.61;74.79;99272.28;4935826;29;20091;-95
2021/07/30 01:20:37;;;;;;;11.75;5.47;;;;;;;18.30;76.35;99269.78;4936499;29;20031;-95
2021/07/30 01:23:04;;;;;;;12.57;5.95;;;;;;;18.40;76.45;99264.22;4937005;29;20063;-95
2021/07/30 01:25:30;;;;;;;15.23;5.50;;;;;;;18.41;75.97;99265.88;4937885;29;20082;-94
2021/07/30 01:27:56;;;;;;;15.90;6.28;;;;;;;18.50;75.58;99261.28;4936087;29;20027;-95
2021/07/30 01:30:23;;;;;;;12.77;5.82;;;;;;;18.66;75.29;99249.63;4935769;29;20024;-95
2021/07/30 01:32:49;;;;;;;9.48;5.53;;;;;;;18.47;76.57;99249.19;4936779;29;20027;-94
2021/07/30 01:35:15;;;;;;;14.15;6.25;;;;;;;18.86;74.26;99239.25;4934956;29;20032;-95
2021/07/30 01:37:41;;;;;;;9.60;5.53;;;;;;;18.80;74.66;99240.84;4935878;29;20031;-93
2021/07/30 01:40:07;;;;;;;15.88;6.45;;;;;;;18.96;74.15;99222.00;4935240;29;20032;-93
2021/07/30 01:42:33;;;;;;;12.55;5.78;;;;;;;18.87;74.34;99201.84;4935160;29;20054;-93
2021/07/30 01:44:59;;;;;;;9.13;5.47;;;;;;;18.42;77.29;99206.38;4935940;29;20479;-94
2021/07/30 01:47:25;;;;;;;9.45;4.95;;;;;;;18.74;75.76;99199.00;4935771;29;20028;-94
2021/07/30 01:49:51;;;;;;;7.93;4.88;;;;;;;18.82;75.41;99199.75;4935331;29;20020;-94
2021/07/30 01:52:19;;;;;;;8.85;4.63;;;;;;;18.95;75.62;99196.41;4935147;29;20083;-93
2021/07/30 01:54:46;;;;;;;9.35;4.63;;;;;;;18.86;75.22;99183.41;4933891;29;20028;-93
2021/07/30 01:57:11;;;;;;;8.52;4.43;;;;;;;18.99;75.11;99184.38;4935138;29;20043;-93
2021/07/30 01:59:37;;;;;;;11.70;4.85;;;;;;;18.92;74.82;99167.56;4935310;29;20035;-93
2021/07/30 02:02:03;;;;;;;6.90;4.60;;;;;;;18.99;74.58;99168.44;4934924;29;20036;-93
2021/07/30 02:04:28;;;;;;;13.80;4.28;;;;;;;18.75;76.21;99161.59;4934941;29;20395;-92
2021/07/30 02:06:53;;;;;;;8.13;3.90;;;;;;;18.82;76.41;99169.69;4934716;29;20024;-94
2021/07/30 02:09:19;;;;;;;5.70;3.80;;;;;;;19.06;75.62;99162.38;4935243;29;20034;-95
2021/07/30 02:11:53;;;;;;;5.78;3.42;;;;;;;19.12;75.06;99172.25;4935027;29;20506;-94
2021/07/30 02:14:20;;;;;;;8.95;3.75;;;;;;;19.19;74.78;99173.97;4935090;29;20468;-94
2021/07/30 02:16:47;;;;;;;10.05;3.58;;;;;;;18.78;77.15;99173.72;4936760;29;20124;-95
2021/07/30 02:19:13;;;;;;;5.55;3.50;;;;;;;19.17;74.24;99159.19;4938855;29;20036;-95
2021/07/30 02:21:39;;;;;;;5.20;3.10;;;;;;;18.87;76.50;99155.81;4938952;29;20032;-92
2021/07/30 02:24:05;;;;;;;4.18;2.65;;;;;;;18.75;76.84;99153.63;4938903;29;20028;-93
2021/07/30 02:26:30;;;;;;;4.78;2.50;;;;;;;18.70;76.56;99156.03;4938536;29;20027;-93
2021/07/30 02:28:56;;;;;;;9.10;2.00;;;;;;;18.52;76.45;99144.97;4938992;29;20114;-94
2021/07/30 02:31:23;;;;;;;9.93;2.30;;;;;;;18.68;75.38;99146.56;4938611;29;20378;-93
2021/07/30 02:33:48;;;;;;;11.07;2.50;;;;;;;18.62;74.72;99134.84;4937794;29;20043;-94
2021/07/30 02:36:13;;;;;;;23.83;3.45;;;;;;;18.24;75.78;99117.25;4940169;29;20462;-95
2021/07/30 02:38:39;;;;;;;15.13;2.50;;;;;;;18.75;72.87;99102.28;4938927;29;20032;-95
2021/07/30 02:41:04;;;;;;;16.45;2.88;;;;;;;18.43;73.74;99097.25;4940024;29;20122;-95
2021/07/30 02:43:29;;;;;;;19.17;2.67;;;;;;;18.31;73.70;99084.63;4938638;29;20049;-95
2021/07/30 02:45:55;;;;;;;17.98;3.13;;;;;;;18.54;72.23;99076.50;4938712;29;20483;-95
2021/07/30 02:48:20;;;;;;;18.58;3.53;;;;;;;18.42;72.90;99078.81;4939439;29;20035;-94
2021/07/30 02:50:48;;;;;;;16.02;3.35;;;;;;;18.20;73.38;99108.00;4939238;29;20360;-95
2021/07/30 02:53:13;;;;;;;23.48;3.75;;;;;;;18.16;72.22;99088.13;4938803;29;20028;-94
2021/07/30 02:55:38;;;;;;;15.52;3.00;;;;;;;18.23;71.42;99089.03;4939313;29;20032;-94
2021/07/30 02:58:04;;;;;;;22.88;4.28;;;;;;;18.41;71.06;99077.19;4938505;29;20032;-95
2021/07/30 03:00:29;;;;;;;15.80;3.45;;;;;;;18.29;71.30;99084.00;4940693;29;20032;-94
2021/07/30 03:02:54;;;;;;;23.50;3.33;;;;;;;18.40;70.69;99078.19;4940160;29;20032;-94
2021/07/30 03:05:20;;;;;;;22.00;4.00;;;;;;;18.43;69.88;99061.88;4938868;29;20035;-94
2021/07/30 03:07:45;;;;;;;19.17;3.15;;;;;;;18.72;68.36;99055.63;4938411;29;20068;-95
2021/07/30 03:10:10;;;;;;;28.05;3.88;;;;;;;18.34;70.21;99039.91;4938522;29;20024;-95
2021/07/30 03:12:36;;;;;;;19.50;3.40;;;;;;;18.39;70.45;99024.22;4938670;29;20027;-96
2021/07/30 03:15:03;;;;;;;20.48;3.78;;;;;;;18.56;69.77;99014.19;4938116;29;20039;-94
2021/07/30 03:17:28;;;;;;;17.88;3.10;;;;;;;18.50;70.03;99009.59;4938150;29;20030;-95
2021/07/30 03:19:53;;;;;;;29.70;4.35;;;;;;;18.42;70.57;99004.41;4940043;29;20031;-95
2021/07/30 03:22:19;;;;;;;19.60;3.92;;;;;;;18.62;69.65;99000.13;4938218;29;20043;-95
2021/07/30 03:24:44;;;;;;;25.05;3.70;;;;;;;18.46;69.86;98999.53;4939529;29;20031;-95
2021/07/30 03:27:09;;;;;;;24.70;3.80;;;;;;;18.59;70.19;98987.19;4940545;29;20071;-95
2021/07/30 03:29:35;;;;;;;21.70;4.22;;;;;;;18.53;70.03;98985.31;4941128;29;20028;-94
2021/07/30 03:32:00;;;;;;;17.08;3.20;;;;;;;18.81;69.34;98973.91;4938549;29;20032;-95
2021/07/30 03:34:27;;;;;;;20.58;3.67;;;;;;;18.74;68.88;98970.34;4939012;29;20035;-95
2021/07/30 03:36:53;;;;;;;19.85;3.85;;;;;;;18.56;70.07;98966.34;4942304;29;20051;-95
2021/07/30 03:39:18;;;;;;;28.45;3.78;;;;;;;18.66;69.65;98960.69;4947024;29;20027;-95
2021/07/30 03:41:43;;;;;;;23.38;3.70;;;;;;;18.53;70.21;98966.69;4951393;29;20054;-96
2021/07/30 03:44:09;;;;;;;19.45;3.70;;;;;;;18.52;70.42;98957.09;4942813;29;20054;-96
2021/07/30 03:46:34;;;;;;;26.15;3.65;;;;;;;18.39;70.54;98956.97;4945732;29;20462;-95
2021/07/30 03:48:59;;;;;;;17.63;3.38;;;;;;;18.52;69.85;98938.50;4951162;29;20063;-96
2021/07/30 03:51:25;;;;;;;24.15;4.05;;;;;;;18.56;69.29;98945.06;4942206;29;20034;-95
2021/07/30 03:53:50;;;;;;;25.02;4.03;;;;;;;18.30;70.95;98939.50;4950100;29;20030;-96
2021/07/30 03:56:16;;;;;;;14.80;3.45;;;;;;;18.31;70.91;98938.50;4940461;29;20548;-95
2021/07/30 03:58:43;;;;;;;28.15;4.28;;;;;;;18.17;71.26;98929.59;4939983;29;20024;-95
2021/07/30 04:01:09;;;;;;;21.75;4.05;;;;;;;18.43;71.13;98921.03;4949985;28;20534;-96
2021/07/30 04:03:35;;;;;;;21.63;3.70;;;;;;;18.49;70.40;98912.28;4947227;29;20027;-96
2021/07/30 04:06:02;;;;;;;20.95;3.33;;;;;;;18.70;69.71;98916.75;4939148;29;20368;-96
2021/07/30 04:08:27;;;;;;;24.73;4.53;;;;;;;18.54;70.18;98901.06;4940460;29;20032;-95
2021/07/30 04:10:52;;;;;;;26.80;4.35;;;;;;;18.42;71.01;98903.44;4942597;29;20099;-95
2021/07/30 04:13:17;;;;;;;22.30;3.35;;;;;;;18.50;71.26;98889.19;4940042;29;20437;-95
2021/07/30 04:15:43;;;;;;;15.93;3.17;;;;;;;18.59;70.68;98875.56;4941768;29;20485;-95
2021/07/30 04:18:08;;;;;;;24.23;4.43;;;;;;;18.39;71.28;98879.91;4944755;29;20032;-95
2021/07/30 04:20:33;;;;;;;23.90;4.00;;;;;;;18.09;72.90;98874.75;4947881;29;20108;-96
2021/07/30 04:22:59;;;;;;;25.98;4.63;;;;;;;18.32;72.60;98879.03;4943660;29;20038;-94
2021/07/30 04:25:24;;;;;;;18.50;3.85;;;;;;;18.57;71.28;98871.47;4940207;29;20027;-94
2021/07/30 04:27:49;;;;;;;19.88;3.00;;;;;;;18.50;71.79;98862.59;4944039;29;20036;-96
2021/07/30 04:32:59;;;;;;;18.63;3.17;;;;;;;18.16;72.17;98842.94;4948408;29;20450;-96
2021/07/30 04:35:25;;;;;;;20.48;2.92;;;;;;;18.16;72.80;98827.81;5037401;23;20047;-94
2021/07/30 04:37:50;;;;;;;22.55;3.65;;;;;;;18.26;72.73;98826.66;5239445;23;20048;-95
2021/07/30 04:40:16;;;;;;;21.20;3.38;;;;;;;18.34;72.24;98810.56;4959779;28;20031;-95
2021/07/30 04:42:41;;;;;;;19.25;3.10;;;;;;;18.45;71.54;98807.38;4962132;28;20101;-95
2021/07/30 04:45:07;;;;;;;14.88;2.80;;;;;;;18.55;71.24;98793.75;5008056;23;20047;-95
2021/07/30 05:00:30;;;;;;;16.88;2.38;;;;;;;18.00;74.27;98717.34;5525007;23;21159;-96
2021/07/30 05:03:01;;;;;;;24.40;3.42;;;;;;;18.34;73.48;98744.16;5049828;23;20075;-96
2021/07/30 05:05:30;;;;;;;22.55;3.20;;;;;;;18.41;73.09;98729.88;5074958;23;20142;-96
2021/07/30 05:07:59;;;;;;;12.65;3.75;;;;;;;18.30;73.58;98732.25;5168797;23;20047;-96
2021/07/30 05:15:38;;;;;;;17.33;3.63;;;;;;;18.26;75.21;98746.97;5125942;23;20055;-96
2021/07/30 05:18:03;;;;;;;12.90;2.97;;;;;;;18.68;73.14;98740.66;4982555;28;20031;-96
2021/07/30 05:20:29;;;;;;;19.38;2.47;;;;;;;18.47;73.81;98754.84;4989956;28;20037;-96
2021/07/30 05:22:54;;;;;;;16.95;2.97;;;;;;;18.55;73.60;98754.69;4982904;28;20389;-96
2021/07/30 05:25:19;;;;;;;13.27;2.55;;;;;;;18.09;76.50;98752.56;4986325;28;20014;-96
2021/07/30 05:27:45;;;;;;;16.63;3.17;;;;;;;18.48;74.22;98740.53;5029031;23;20063;-96
2021/07/30 05:30:11;;;;;;;10.77;2.17;;;;;;;18.47;74.11;98730.94;5003248;23;20058;-96
2021/07/30 05:32:36;;;;;;;6.68;1.60;;;;;;;18.22;75.42;98730.59;4967570;28;20055;-96
2021/07/30 05:35:02;;;;;;;18.75;3.45;;;;;;;18.27;75.08;98716.75;4969820;28;20035;-95
2021/07/30 05:37:28;;;;;;;12.25;2.30;;;;;;;18.21;75.27;98713.03;4969177;28;20028;-96
2021/07/30 05:39:54;;;;;;;11.98;2.95;;;;;;;18.03;76.70;98701.06;5156296;23;20039;-95
2021/07/30 05:42:19;;;;;;;16.30;3.13;;;;;;;18.59;74.55;98697.47;4957874;28;20031;-95
2021/07/30 05:44:45;;;;;;;15.88;3.00;;;;;;;18.62;73.82;98698.91;4960186;28;20035;-96
2021/07/30 05:47:10;;;;;;;20.42;3.85;;;;;;;18.68;73.94;98698.13;4958981;29;20027;-96
2021/07/30 05:49:36;;;;;;;14.18;2.15;;;;;;;18.88;72.86;98698.25;4959319;28;20028;-96
2021/07/30 05:52:03;;;;;;;20.83;3.35;;;;;;;18.44;75.04;98691.47;5058686;23;20043;-96
2021/07/30 05:57:01;;;;;;;12.55;2.55;;;;;;;18.79;73.28;98688.75;4941025;29;20047;-96
2021/07/30 05:59:27;;;;;;;24.80;3.78;;;;;;;18.87;73.13;98675.31;4950700;28;20027;-95
2021/07/30 06:04:28;;;;;;;20.30;3.78;;;;;;;18.41;74.14;98638.72;5244137;23;20063;-96
2021/07/30 06:09:29;;;;;;;22.55;4.30;;;;;;;18.97;71.97;98640.34;5812627;23;20059;-96
2021/07/30 06:14:29;;;;;;;21.13;3.90;;;;;;;18.87;72.18;98630.09;5953548;23;20322;-93
2021/07/30 06:24:43;;;;;;;27.02;5.22;;;;;;;18.77;73.33;98616.34;5692216;23;21153;-95
2021/07/30 06:29:44;;;;;;;22.67;4.47;;;;;;;18.60;73.40;98590.16;5448645;23;20035;-95
2021/07/30 07:47:07;;;;;;;11.70;2.20;;;;;;;18.68;72.64;98468.69;5153158;23;20057;-96
2021/07/30 07:49:32;;;;;;;11.65;2.30;;;;;;;18.41;75.02;98474.00;4979416;28;20074;-96
2021/07/30 07:51:58;;;;;;;10.45;2.08;;;;;;;18.33;75.86;98482.16;4978559;28;20136;-96
2021/07/30 07:54:23;;;;;;;14.48;2.28;;;;;;;18.53;75.72;98477.69;4973615;28;20038;-96
2021/07/30 07:56:49;;;;;;;7.35;1.60;;;;;;;18.72;73.86;98464.59;4999442;23;20067;-96
2021/07/30 07:59:15;;;;;;;10.13;1.33;;;;;;;18.40;73.97;98445.75;5569802;23;21452;-96
2021/07/30 08:01:40;;;;;;;9.82;2.03;;;;;;;18.91;73.53;98477.09;4999951;23;20047;-95
2021/07/30 08:04:05;;;;;;;9.48;1.58;;;;;;;19.40;72.22;98461.69;4947717;29;20063;-96
2021/07/30 08:06:31;;;;;;;10.52;1.95;;;;;;;19.23;71.93;98448.00;4943217;29;20607;-95
2021/07/30 08:08:56;;;;;;;7.10;1.50;;;;;;;18.76;74.04;98465.81;4947434;29;20012;-95
2021/07/30 08:11:22;;;;;;;6.40;1.73;;;;;;;18.56;74.79;98461.34;4951413;29;20035;-94
2021/07/30 08:13:48;;;;;;;12.55;1.20;;;;;;;18.32;76.11;98448.63;4953619;29;20039;-96
2021/07/30 08:16:13;;;;;;;6.07;1.30;;;;;;;18.54;76.18;98468.69;4950188;29;20054;-94
2021/07/30 08:18:39;;;;;;;7.05;1.65;;;;;;;18.83;75.70;98464.00;4943214;29;20055;-95
2021/07/30 08:21:04;;;;;;;5.35;0.95;;;;;;;18.68;76.02;98468.69;4951273;29;20039;-95
2021/07/30 08:23:30;;;;;;;8.32;1.27;;;;;;;18.81;76.38;98480.16;4942679;29;20035;-94
2021/07/30 08:25:55;;;;;;;6.60;1.77;;;;;;;19.10;74.57;98477.31;4945661;29;20055;-95
2021/07/30 08:28:21;;;;;;;6.72;1.60;;;;;;;18.80;76.58;98481.22;4954157;28;20052;-96
2021/07/30 08:30:48;;;;;;;5.10;1.00;;;;;;;19.09;74.44;98449.06;5057742;23;20031;-96
2021/07/30 08:33:14;;;;;;;6.68;0.95;;;;;;;19.34;73.62;98487.28;5340068;23;20040;-96
2021/07/30 08:40:43;;;;;;;8.10;1.30;;;;;;;19.85;72.27;98495.59;5544972;23;20422;-96
2021/07/30 08:43:15;;;;;;;8.35;0.85;;;;;;;19.43;73.24;98477.22;4971439;28;20031;-95
2021/07/30 08:45:48;;;;;;;3.40;0.95;;;;;;;19.86;71.58;98470.56;5008700;23;20134;-95
2021/07/30 08:48:13;;;;;;;6.05;0.88;;;;;;;19.13;73.79;98476.88;4959533;28;20055;-94
2021/07/30 08:50:39;;;;;;;4.13;1.15;;;;;;;19.20;74.29;98480.34;4960833;28;20027;-96
2021/07/30 08:53:05;;;;;;;1.90;0.50;;;;;;;18.98;73.93;98496.53;4968966;28;20070;-95
2021/07/30 08:55:31;;;;;;;1.92;0.60;;;;;;;19.39;72.08;98466.19;4961630;28;20056;-94
2021/07/30 08:57:57;;;;;;;5.60;0.73;;;;;;;19.85;72.50;98463.63;4956212;28;20098;-95
2021/07/30 09:00:23;;;;;;;4.00;0.70;;;;;;;19.83;72.53;98465.66;4957191;28;20027;-94
2021/07/30 09:02:49;;;;;;;3.17;0.60;;;;;;;19.76;71.82;98469.16;4964219;28;20051;-96
2021/07/30 09:05:28;;;;;;;3.85;0.88;;;;;;;19.83;71.42;98477.16;4976630;28;20018;-96
2021/07/30 09:07:55;;;;;;;2.13;0.60;;;;;;;18.98;75.24;98475.25;5258741;23;20065;-96
2021/07/30 09:10:38;;;;;;;6.20;0.85;;;;;;;19.64;74.26;98500.09;4971661;28;20054;-96
2021/07/30 09:20:46;;;;;;;6.57;1.35;;;;;;;19.16;78.46;98513.72;5276022;23;20265;-96
2021/07/30 09:28:23;;;;;;;8.00;1.48;;;;;;;19.42;77.65;98545.59;5413915;23;20099;-95
2021/07/30 09:30:57;;;;;;;11.57;2.47;;;;;;;19.58;76.25;98576.28;5175211;23;20135;-96
2021/07/30 09:38:33;;;;;;;4.28;0.80;;;;;;;18.61;82.00;98615.69;5823842;23;20227;-96
2021/07/30 09:41:20;;;;;;;7.72;1.20;;;;;;;19.69;77.91;98624.59;5437897;23;20047;-96
2021/07/30 09:56:29;;;;;;;3.25;0.60;;;;;;;21.14;73.59;98678.47;5269928;23;20043;-95
2021/07/30 09:58:57;;;;;;;1.35;0.57;;;;;;;20.91;72.07;98687.03;4975529;28;20050;-96
2021/07/30 10:01:24;;;;;;;1.55;0.32;;;;;;;20.98;70.04;98703.81;4970405;28;20031;-96
2021/07/30 10:03:53;;;;;;;2.80;0.50;;;;;;;21.33;70.28;98713.28;4970724;28;20032;-95
2021/07/30 10:06:19;;;;;;;3.47;1.02;;;;;;;20.86;68.63;98712.72;4973550;28;20031;-96
2021/07/30 10:08:45;;;;;;;3.35;0.60;;;;;;;20.43;69.39;98732.72;4975756;28;20034;-96
2021/07/30 10:11:12;;;;;;;5.18;1.00;;;;;;;20.26;70.71;98758.16;4982773;23;20023;-96
2021/07/30 10:21:23;;;;;;;4.47;0.85;;;;;;;20.64;68.53;98768.19;5426000;23;20239;-96
2021/07/30 11:17:35;;;;;;;1.27;0.20;;;;;;;21.82;63.98;98932.63;5193260;23;20051;-96
2021/07/30 11:27:46;;;;;;;2.55;0.57;;;;;;;20.98;68.39;98983.16;5509646;23;20046;-96
2021/07/30 11:30:12;;;;;;;0.88;0.35;;;;;;;20.53;69.41;98951.72;4987632;28;20086;-95
2021/07/30 11:32:38;;;;;;;1.20;0.30;;;;;;;20.62;69.78;98967.53;4989070;28;20030;-95
2021/07/30 11:35:09;;;;;;;0.88;0.20;;;;;;;20.93;71.51;98965.09;4990613;28;20031;-96
2021/07/30 11:37:35;;;;;;;1.15;0.30;;;;;;;21.23;69.42;98991.34;4990598;28;20025;-96
2021/07/30 11:40:01;;;;;;;1.75;0.40;;;;;;;22.53;69.26;98983.22;4988079;28;20031;-96
2021/07/30 11:42:32;;;;;;;1.58;0.45;;;;;;;23.45;66.01;99012.09;4987426;28;20026;-96
2021/07/30 11:45:07;;;;;;;1.13;0.17;;;;;;;23.33;63.94;98993.25;4990509;28;20037;-96
2021/07/30 11:47:34;;;;;;;3.33;0.50;;;;;;;22.49;63.97;99003.41;4985687;28;20027;-95
2021/07/30 11:50:11;;;;;;;1.45;0.30;;;;;;;22.43;63.71;99020.31;4993590;28;20026;-96
2021/07/30 11:52:38;;;;;;;0.90;0.10;;;;;;;21.24;67.26;99029.53;4978813;28;20027;-96
2021/07/30 11:55:18;;;;;;;0.75;0.10;;;;;;;21.74;66.00;99044.03;4979433;28;20121;-95
2021/07/30 11:57:47;;;;;;;0.10;0.10;;;;;;;20.86;67.28;99052.31;4988050;28;20030;-96
2021/07/30 12:00:27;;;;;;;2.55;0.32;;;;;;;20.93;70.44;99047.81;4993718;28;20034;-96
2021/07/30 12:02:53;;;;;;;0.55;0.30;;;;;;;21.61;67.77;99049.41;4984836;28;20405;-96
2021/07/30 12:05:37;;;;;;;0.20;0.10;;;;;;;21.73;66.78;99068.28;4978039;28;20037;-96
2021/07/30 12:08:05;;;;;;;0.17;0.03;;;;;;;22.82;63.98;99066.56;4975941;28;20481;-95
2021/07/30 12:10:32;;;;;;;1.05;0.20;;;;;;;22.73;64.81;99074.03;4976068;28;20544;-95
2021/07/30 12:12:59;;;;;;;2.65;0.35;;;;;;;22.05;63.17;99087.09;4980425;28;20082;-95
2021/07/30 12:15:26;;;;;;;3.13;0.30;;;;;;;21.93;63.63;99082.41;4977351;28;20022;-96
2021/07/30 12:18:02;;;;;;;0.98;0.32;;;;;;;22.06;63.79;99100.25;4981338;28;20055;-96
2021/07/30 12:20:36;;;;;;;2.50;0.60;;;;;;;21.54;63.62;99099.34;4982806;28;20022;-96
2021/07/30 12:23:06;;;;;;;1.48;0.43;;;;;;;22.15;62.57;99122.22;4986475;28;20042;-96
2021/07/30 12:25:37;;;;;;;1.15;0.85;;;;;;;21.94;63.09;99112.66;4984286;28;20054;-96
2021/07/30 12:28:06;;;;;;;1.85;0.50;;;;;;;22.30;61.96;99116.66;4983267;28;20414;-96
2021/07/30 12:30:31;;;;;;;1.48;0.60;;;;;;;22.58;61.67;99119.81;4979531;28;20123;-96
2021/07/30 12:32:57;;;;;;;0.88;0.55;;;;;;;22.36;61.46;99138.00;4987168;28;20023;-96
2021/07/30 12:35:35;;;;;;;1.42;0.77;;;;;;;22.11;60.77;99132.50;4989931;28;20029;-95
2021/07/30 12:38:07;;;;;;;4.32;0.90;;;;;;;22.16;61.58;99135.38;4985677;28;20035;-96
2021/07/30 12:40:38;;;;;;;0.93;0.73;;;;;;;22.23;61.10;99145.22;4988167;28;20050;-96
2021/07/30 12:43:09;;;;;;;2.17;0.93;;;;;;;21.60;64.07;99141.25;4994461;28;20019;-96
2021/07/30 12:45:43;;;;;;;3.15;0.88;;;;;;;22.38;61.29;99143.16;4994518;28;20031;-96
2021/07/30 12:48:09;;;;;;;4.40;1.20;;;;;;;22.96;60.97;99145.72;4994905;28;20010;-95
2021/07/30 12:50:39;;;;;;;1.48;1.13;;;;;;;23.35;59.22;99157.22;4989993;28;20022;-96
2021/07/30 12:56:05;;;;;;;2.15;1.17;;;;;;;22.35;57.54;99167.63;5067033;23;20063;-96
2021/07/30 12:58:32;;;;;;;4.72;1.05;;;;;;;21.98;57.56;99145.94;4996987;23;20071;-96
2021/07/30 13:00:59;;;;;;;6.13;1.52;;;;;;;22.31;59.16;99155.72;5330024;23;20033;-95
2021/07/30 13:03:28;;;;;;;2.40;1.08;;;;;;;22.85;56.88;99151.78;4965715;28;20071;-95
2021/07/30 13:06:06;;;;;;;3.55;0.93;;;;;;;24.19;55.22;99156.88;5461914;23;20049;-95
2021/07/30 13:13:37;;;;;;;3.05;1.30;;;;;;;24.03;53.20;99174.38;4950210;29;20066;-96
2021/07/30 13:16:03;;;;;;;3.03;1.02;;;;;;;23.25;53.96;99167.59;5030107;23;20049;-96
2021/07/30 13:18:29;;;;;;;3.60;1.50;;;;;;;22.49;56.62;99187.97;4991784;28;20035;-96
2021/07/30 13:20:55;;;;;;;3.10;1.13;;;;;;;22.16;55.51;99186.19;4983847;28;20029;-96
2021/07/30 13:23:22;;;;;;;2.38;1.45;;;;;;;21.99;57.72;99196.47;4993320;28;20023;-96
2021/07/30 13:25:49;;;;;;;4.45;1.38;;;;;;;21.92;59.04;99210.88;4990549;28;20047;-96
2021/07/30 13:28:17;;;;;;;2.47;1.10;;;;;;;22.80;57.92;99199.75;4985694;28;20022;-96
2021/07/30 13:30:44;;;;;;;2.30;1.17;;;;;;;22.74;55.76;99195.25;4987075;28;20026;-96
2021/07/30 13:33:09;;;;;;;5.93;1.25;;;;;;;22.88;58.39;99198.69;4990285;28;20054;-96
2021/07/30 13:35:36;;;;;;;1.55;1.00;;;;;;;23.11;59.30;99208.91;4985415;28;20094;-96
2021/07/30 13:38:05;;;;;;;2.65;1.30;;;;;;;22.53;59.04;99218.59;4990736;28;20033;-96
2021/07/30 13:40:33;;;;;;;2.40;0.93;;;;;;;22.83;60.83;99219.91;4997223;28;20022;-96
2021/07/30 13:43:06;;;;;;;3.15;1.30;;;;;;;22.95;56.23;99210.19;4993028;28;20090;-96
2021/07/30 13:45:36;;;;;;;4.95;1.20;;;;;;;22.77;56.76;99219.75;4991837;28;20033;-96
2021/07/30 13:48:02;;;;;;;1.13;0.90;;;;;;;22.54;56.92;99220.25;5106928;23;20110;-96
2021/07/30 13:50:29;;;;;;;1.42;0.85;;;;;;;21.78;57.16;99212.72;4969811;28;20062;-96
2021/07/30 13:52:54;;;;;;;6.88;1.00;;;;;;;22.27;57.32;99221.34;4970184;28;20040;-96
2021/07/30 13:55:20;;;;;;;7.30;1.10;;;;;;;22.35;58.49;99231.81;4973274;28;20027;-95
2021/07/30 13:57:46;;;;;;;1.42;1.00;;;;;;;22.20;58.12;99228.53;4972696;28;20042;-96
2021/07/30 14:00:11;;;;;;;1.85;0.80;;;;;;;22.58;57.31;99248.22;5023618;23;20242;-95
2021/07/30 14:02:38;;;;;;;2.40;1.60;;;;;;;22.14;58.77;99246.25;4942070;29;20102;-95
2021/07/30 14:05:04;;;;;;;1.55;0.93;;;;;;;22.21;57.87;99251.56;4942892;29;20040;-96
2021/07/30 14:07:29;;;;;;;1.05;0.50;;;;;;;22.44;56.65;99259.97;4950772;29;20032;-96
2021/07/30 14:09:55;;;;;;;3.42;0.85;;;;;;;22.52;57.83;99243.69;4953905;29;20035;-95
2021/07/30 14:12:21;;;;;;;2.22;0.57;;;;;;;21.89;58.07;99249.53;4956254;29;20026;-95
2021/07/30 14:14:47;;;;;;;4.13;0.50;;;;;;;21.39;60.13;99249.88;4953733;29;20505;-95
2021/07/30 14:19:47;;;;;;;0.85;0.47;;;;;;;22.31;56.56;99284.88;5325817;23;20035;-96
2021/07/30 14:22:13;;;;;;;1.77;0.40;;;;;;;22.62;56.74;99298.63;5003563;23;20119;-96
2021/07/30 14:37:34;;;;;;;0.70;0.38;;;;;;;22.42;56.15;99323.56;1853966;23;22433;-96
2021/07/30 14:40:04;;;;;;;0.82;0.22;;;;;;;22.92;55.39;99339.09;5095280;23;20070;-96
2021/07/30 14:42:30;;;;;;;2.05;0.50;;;;;;;23.11;55.06;99329.38;4986846;23;20042;-96
2021/07/30 14:44:57;;;;;;;1.88;0.20;;;;;;;23.51;53.68;99326.50;4974877;28;20027;-96
2021/07/30 14:47:23;;;;;;;0.50;0.10;;;;;;;23.08;54.12;99345.84;5061774;23;20112;-96
2021/07/30 14:49:49;;;;;;;2.70;0.30;;;;;;;22.82;54.69;99338.72;4971887;28;20083;-96
2021/07/30 14:52:14;;;;;;;0.68;0.10;;;;;;;22.38;54.81;99354.44;4974385;28;20511;-96
2021/07/30 14:54:40;;;;;;;0.50;0.20;;;;;;;22.78;53.72;99354.34;4973743;28;20062;-96
2021/07/30 14:57:06;;;;;;;0.88;0.17;;;;;;;22.82;55.49;99355.56;4982061;23;20474;-96
2021/07/30 14:59:31;;;;;;;0.63;0.00;;;;;;;22.81;54.18;99353.94;4971611;28;20110;-96
2021/07/30 15:14:46;;;;;;;1.63;0.35;;;;;;;21.70;57.34;99421.31;5653998;23;20062;-96
2021/07/30 15:19:47;;;;;;;1.55;0.50;;;;;;;20.85;58.42;99402.00;5339864;23;20046;-95
2021/07/30 18:49:22;;;;;;;;;;;;;;;21.16;60.55;99655.97;1614613;23;20217;-96
2021/07/30 19:38:15;;;;;;;5.10;1.85;;;;;;;20.28;64.30;99692.53;4958424;28;20062;-96
2021/07/30 19:43:20;;;;;;;1.75;1.45;;;;;;;21.04;63.44;99707.41;5557413;23;20031;-95
2021/07/30 19:45:52;;;;;;;3.28;1.58;;;;;;;20.36;66.01;99707.59;5480953;23;20022;-95
2021/07/30 19:53:22;;;;;;;4.05;1.45;;;;;;;20.34;66.39;99713.09;5248447;23;20058;-96
2021/07/30 19:55:47;;;;;;;2.55;1.40;;;;;;;20.65;65.33;99701.41;4970732;28;20090;-96
2021/07/30 19:58:13;;;;;;;2.17;1.23;;;;;;;20.52;65.42;99695.91;4972451;28;20046;-95
2021/07/30 20:00:38;;;;;;;4.28;1.20;;;;;;;20.74;65.31;99720.81;4967639;28;20474;-96
2021/07/30 20:03:03;;;;;;;1.33;0.95;;;;;;;20.62;65.44;99703.63;4965241;28;20055;-96
2021/07/30 20:05:31;;;;;;;1.63;1.10;;;;;;;20.84;64.76;99720.53;4962558;28;20035;-96
2021/07/30 20:07:57;;;;;;;4.47;1.20;;;;;;;20.59;64.76;99708.31;4967430;29;20054;-94